AIC2M VOPB-VOMM
Flight info
| Callsign | AIC2M |
|---|---|
| Flight time | 2h 15m |
| Altitude | 38000 |
| Route | PPB P761 IDASO V3 AVMOR AVMOR2F |
| Aircraft | A21N/M-SDE3FGHIRWY/LB1 |
Departure
| Time | 2026-04-30 10:27 |
|---|---|
| Airport | Veer Savarkar International Airport / INS Utkrosh (VOPB) |
Arrival
| Time | 2026-04-30 12:42 |
|---|---|
| Airport | Chennai International Airport (VOMM) |
| Time | Latitude | Longitude | Altitude | Speed | Heading |
|---|---|---|---|---|---|
| 2026-04-30 10:07 | 11.65143 | 92.73455 | 61 ft | 0 kts | 307° |
| 2026-04-30 10:15 | 11.65139 | 92.73461 | 61 ft | 2 kts | 307° |
| 2026-04-30 10:15 | 11.65129 | 92.73473 | 61 ft | 2 kts | 306° |
| 2026-04-30 10:16 | 11.65120 | 92.73486 | 60 ft | 2 kts | 306° |
| 2026-04-30 10:16 | 11.65114 | 92.73494 | 60 ft | 1 kts | 307° |
| 2026-04-30 10:16 | 11.65112 | 92.73503 | 60 ft | 1 kts | 245° |
| 2026-04-30 10:17 | 11.65121 | 92.73511 | 61 ft | 0 kts | 215° |
| 2026-04-30 10:19 | 11.65120 | 92.73511 | 61 ft | 0 kts | 215° |
| 2026-04-30 10:19 | 11.65103 | 92.73498 | 60 ft | 5 kts | 217° |
| 2026-04-30 10:20 | 11.65059 | 92.73463 | 57 ft | 10 kts | 217° |
| 2026-04-30 10:20 | 11.64927 | 92.73492 | 55 ft | 11 kts | 127° |
| 2026-04-30 10:20 | 11.64865 | 92.73523 | 56 ft | 10 kts | 202° |
| 2026-04-30 10:21 | 11.64792 | 92.73469 | 53 ft | 18 kts | 217° |
| 2026-04-30 10:21 | 11.64663 | 92.73371 | 47 ft | 24 kts | 216° |
| 2026-04-30 10:21 | 11.64519 | 92.73267 | 42 ft | 26 kts | 214° |
| 2026-04-30 10:21 | 11.64375 | 92.73154 | 38 ft | 26 kts | 217° |
| 2026-04-30 10:22 | 11.64230 | 92.73045 | 36 ft | 25 kts | 216° |
| 2026-04-30 10:22 | 11.64091 | 92.72942 | 38 ft | 23 kts | 216° |
| 2026-04-30 10:22 | 11.63969 | 92.72853 | 42 ft | 20 kts | 215° |
| 2026-04-30 10:22 | 11.63865 | 92.72776 | 46 ft | 16 kts | 217° |
| 2026-04-30 10:23 | 11.63782 | 92.72712 | 51 ft | 13 kts | 217° |
| 2026-04-30 10:23 | 11.63713 | 92.72659 | 55 ft | 12 kts | 217° |
| 2026-04-30 10:23 | 11.63591 | 92.72568 | 62 ft | 22 kts | 216° |
| 2026-04-30 10:23 | 11.63476 | 92.72483 | 69 ft | 18 kts | 216° |
| 2026-04-30 10:24 | 11.63374 | 92.72408 | 77 ft | 16 kts | 216° |
| 2026-04-30 10:24 | 11.63282 | 92.72339 | 84 ft | 15 kts | 217° |
| 2026-04-30 10:24 | 11.63213 | 92.72286 | 91 ft | 10 kts | 217° |
| 2026-04-30 10:24 | 11.63119 | 92.72215 | 101 ft | 16 kts | 217° |
| 2026-04-30 10:25 | 11.63049 | 92.72163 | 108 ft | 9 kts | 216° |
| 2026-04-30 10:25 | 11.63013 | 92.72146 | 112 ft | 1 kts | 216° |
| 2026-04-30 10:25 | 11.63014 | 92.72140 | 112 ft | 1 kts | 304° |
| 2026-04-30 10:25 | 11.63039 | 92.72152 | 110 ft | 9 kts | 38° |
| 2026-04-30 10:26 | 11.63127 | 92.72219 | 100 ft | 24 kts | 37° |
| 2026-04-30 10:26 | 11.63414 | 92.72435 | 74 ft | 85 kts | 35° |
| 2026-04-30 10:26 | 11.64061 | 92.72920 | 39 ft | 143 kts | 36° |
| 2026-04-30 10:26 | 11.64951 | 92.73598 | 261 ft | 165 kts | 39° |
| 2026-04-30 10:27 | 11.65860 | 92.74355 | 629 ft | 173 kts | 41° |
| 2026-04-30 10:27 | 11.66770 | 92.75190 | 1087 ft | 179 kts | 44° |
| 2026-04-30 10:27 | 11.67654 | 92.76087 | 1584 ft | 183 kts | 50° |
| 2026-04-30 10:27 | 11.68230 | 92.77311 | 1849 ft | 199 kts | 79° |
| 2026-04-30 10:28 | 11.67950 | 92.78700 | 2061 ft | 214 kts | 122° |
| 2026-04-30 10:28 | 11.66709 | 92.79592 | 2263 ft | 231 kts | 164° |
| 2026-04-30 10:28 | 11.65064 | 92.79466 | 2433 ft | 251 kts | 205° |
| 2026-04-30 10:28 | 11.63747 | 92.78267 | 2751 ft | 261 kts | 243° |
| 2026-04-30 10:29 | 11.63386 | 92.76497 | 3253 ft | 260 kts | 279° |
| 2026-04-30 10:29 | 11.64043 | 92.74818 | 3861 ft | 256 kts | 303° |
| 2026-04-30 10:29 | 11.64894 | 92.73214 | 4429 ft | 261 kts | 290° |
| 2026-04-30 10:29 | 11.65348 | 92.71416 | 5047 ft | 264 kts | 283° |
| 2026-04-30 10:30 | 11.65682 | 92.69572 | 5672 ft | 267 kts | 281° |
| 2026-04-30 10:30 | 11.65979 | 92.67711 | 6307 ft | 269 kts | 280° |
| 2026-04-30 10:30 | 11.66265 | 92.65832 | 6956 ft | 272 kts | 280° |
| 2026-04-30 10:30 | 11.66552 | 92.63904 | 7612 ft | 275 kts | 280° |
| 2026-04-30 10:31 | 11.66837 | 92.61989 | 8260 ft | 277 kts | 280° |
| 2026-04-30 10:31 | 11.67125 | 92.60046 | 8926 ft | 279 kts | 279° |
| 2026-04-30 10:31 | 11.67415 | 92.58080 | 9509 ft | 282 kts | 279° |
| 2026-04-30 10:31 | 11.67705 | 92.56105 | 10120 ft | 285 kts | 280° |
| 2026-04-30 10:32 | 11.68000 | 92.54102 | 10725 ft | 287 kts | 279° |
| 2026-04-30 10:32 | 11.68294 | 92.52109 | 11313 ft | 288 kts | 279° |
| 2026-04-30 10:32 | 11.68591 | 92.50087 | 11909 ft | 290 kts | 279° |
| 2026-04-30 10:32 | 11.68893 | 92.48039 | 12482 ft | 292 kts | 279° |
| 2026-04-30 10:33 | 11.69192 | 92.46001 | 13045 ft | 293 kts | 279° |
| 2026-04-30 10:33 | 11.69493 | 92.43958 | 13574 ft | 295 kts | 279° |
| 2026-04-30 10:33 | 11.69799 | 92.41879 | 14083 ft | 298 kts | 279° |
| 2026-04-30 10:33 | 11.70109 | 92.39764 | 14595 ft | 300 kts | 279° |
| 2026-04-30 10:34 | 11.70417 | 92.37657 | 15093 ft | 302 kts | 279° |
| 2026-04-30 10:34 | 11.70728 | 92.35541 | 15577 ft | 305 kts | 279° |
| 2026-04-30 10:34 | 11.71041 | 92.33408 | 16023 ft | 308 kts | 278° |
| 2026-04-30 10:34 | 11.71360 | 92.31240 | 16478 ft | 310 kts | 278° |
| 2026-04-30 10:35 | 11.71678 | 92.29060 | 16920 ft | 313 kts | 278° |
| 2026-04-30 10:35 | 11.71999 | 92.26865 | 17348 ft | 316 kts | 278° |
| 2026-04-30 10:35 | 11.72325 | 92.24629 | 17781 ft | 318 kts | 278° |
| 2026-04-30 10:35 | 11.72652 | 92.22406 | 18134 ft | 323 kts | 277° |
| 2026-04-30 10:36 | 11.72990 | 92.20085 | 18329 ft | 335 kts | 277° |
| 2026-04-30 10:36 | 11.73334 | 92.17715 | 18526 ft | 346 kts | 277° |
| 2026-04-30 10:36 | 11.73695 | 92.15232 | 18723 ft | 357 kts | 277° |
| 2026-04-30 10:36 | 11.74064 | 92.12697 | 18913 ft | 367 kts | 277° |
| 2026-04-30 10:37 | 11.74443 | 92.10095 | 19097 ft | 377 kts | 277° |
| 2026-04-30 10:37 | 11.74834 | 92.07417 | 19274 ft | 387 kts | 277° |
| 2026-04-30 10:37 | 11.75233 | 92.04684 | 19472 ft | 396 kts | 277° |
| 2026-04-30 10:37 | 11.75640 | 92.01884 | 19805 ft | 400 kts | 277° |
| 2026-04-30 10:38 | 11.76046 | 91.99096 | 20198 ft | 402 kts | 277° |
| 2026-04-30 10:38 | 11.76459 | 91.96265 | 20595 ft | 404 kts | 277° |
| 2026-04-30 10:38 | 11.76872 | 91.93425 | 20960 ft | 406 kts | 277° |
| 2026-04-30 10:38 | 11.77285 | 91.90582 | 21318 ft | 408 kts | 277° |
| 2026-04-30 10:39 | 11.77702 | 91.87708 | 21675 ft | 411 kts | 277° |
| 2026-04-30 10:39 | 11.78115 | 91.84844 | 22028 ft | 412 kts | 277° |
| 2026-04-30 10:39 | 11.78533 | 91.81951 | 22387 ft | 414 kts | 277° |
| 2026-04-30 10:39 | 11.78954 | 91.79038 | 22753 ft | 415 kts | 276° |
| 2026-04-30 10:40 | 11.79375 | 91.76115 | 23123 ft | 416 kts | 276° |
| 2026-04-30 10:40 | 11.79798 | 91.73183 | 23482 ft | 417 kts | 277° |
| 2026-04-30 10:40 | 11.80214 | 91.70289 | 23828 ft | 418 kts | 277° |
| 2026-04-30 10:40 | 11.80639 | 91.67339 | 24166 ft | 420 kts | 277° |
| 2026-04-30 10:41 | 11.81060 | 91.64414 | 24503 ft | 421 kts | 277° |
| 2026-04-30 10:41 | 11.81485 | 91.61456 | 24840 ft | 421 kts | 277° |
| 2026-04-30 10:41 | 11.81909 | 91.58506 | 25150 ft | 423 kts | 277° |
| 2026-04-30 10:41 | 11.82335 | 91.55540 | 25449 ft | 424 kts | 277° |
| 2026-04-30 10:42 | 11.82765 | 91.52541 | 25766 ft | 425 kts | 276° |
| 2026-04-30 10:42 | 11.83190 | 91.49578 | 26079 ft | 426 kts | 276° |
| 2026-04-30 10:42 | 11.83617 | 91.46594 | 26370 ft | 427 kts | 276° |
| 2026-04-30 10:42 | 11.84048 | 91.43576 | 26670 ft | 427 kts | 276° |
| 2026-04-30 10:43 | 11.84476 | 91.40575 | 26973 ft | 427 kts | 276° |
| 2026-04-30 10:43 | 11.84758 | 91.38590 | 27238 ft | 426 kts | 276° |
| 2026-04-30 10:43 | 11.85320 | 91.34647 | 27734 ft | 424 kts | 276° |
| 2026-04-30 10:43 | 11.85743 | 91.31680 | 28011 ft | 425 kts | 276° |
| 2026-04-30 10:44 | 11.86120 | 91.28690 | 28275 ft | 426 kts | 274° |
| 2026-04-30 10:44 | 11.86423 | 91.25679 | 28563 ft | 426 kts | 274° |
| 2026-04-30 10:44 | 11.86719 | 91.22665 | 28852 ft | 427 kts | 274° |
| 2026-04-30 10:44 | 11.87012 | 91.19649 | 29116 ft | 429 kts | 274° |
| 2026-04-30 10:45 | 11.87305 | 91.16632 | 29344 ft | 431 kts | 274° |
| 2026-04-30 10:45 | 11.87601 | 91.13579 | 29578 ft | 433 kts | 274° |
| 2026-04-30 10:45 | 11.87899 | 91.10498 | 29822 ft | 435 kts | 274° |
| 2026-04-30 10:45 | 11.88193 | 91.07452 | 30072 ft | 437 kts | 273° |
| 2026-04-30 10:46 | 11.88494 | 91.04329 | 30328 ft | 438 kts | 273° |
| 2026-04-30 10:46 | 11.88792 | 91.01239 | 30636 ft | 438 kts | 273° |
| 2026-04-30 10:46 | 11.89086 | 90.98192 | 30976 ft | 438 kts | 273° |
| 2026-04-30 10:46 | 11.89385 | 90.95082 | 31320 ft | 437 kts | 273° |
| 2026-04-30 10:47 | 11.89682 | 90.91991 | 31654 ft | 437 kts | 273° |
| 2026-04-30 10:47 | 11.89973 | 90.88953 | 31998 ft | 436 kts | 273° |
| 2026-04-30 10:47 | 11.90267 | 90.85879 | 32337 ft | 435 kts | 273° |
| 2026-04-30 10:47 | 11.90563 | 90.82802 | 32697 ft | 434 kts | 273° |
| 2026-04-30 10:48 | 11.90754 | 90.80791 | 32962 ft | 434 kts | 273° |
| 2026-04-30 10:48 | 11.91141 | 90.76725 | 33532 ft | 431 kts | 273° |
| 2026-04-30 10:48 | 11.91334 | 90.74683 | 33850 ft | 429 kts | 273° |
| 2026-04-30 10:48 | 11.91622 | 90.71653 | 34322 ft | 427 kts | 274° |
| 2026-04-30 10:49 | 11.92000 | 90.67656 | 34913 ft | 424 kts | 274° |
| 2026-04-30 10:49 | 11.92188 | 90.65667 | 35197 ft | 422 kts | 274° |
| 2026-04-30 10:49 | 11.92562 | 90.61735 | 35738 ft | 419 kts | 274° |
| 2026-04-30 10:49 | 11.92845 | 90.58752 | 35826 ft | 419 kts | 274° |
| 2026-04-30 10:50 | 11.93403 | 90.52872 | 35834 ft | 418 kts | 274° |
| 2026-04-30 10:50 | 11.93960 | 90.46984 | 35835 ft | 418 kts | 274° |
| 2026-04-30 10:51 | 11.94516 | 90.41092 | 35835 ft | 418 kts | 274° |
| 2026-04-30 10:51 | 11.94980 | 90.36173 | 35835 ft | 417 kts | 274° |
| 2026-04-30 10:52 | 11.95628 | 90.29259 | 35841 ft | 425 kts | 274° |
| 2026-04-30 10:52 | 11.96196 | 90.23180 | 35973 ft | 434 kts | 274° |
| 2026-04-30 10:53 | 11.96772 | 90.17028 | 36165 ft | 440 kts | 274° |
| 2026-04-30 10:53 | 11.97354 | 90.10787 | 36328 ft | 444 kts | 274° |
| 2026-04-30 10:54 | 11.97646 | 90.07643 | 36454 ft | 445 kts | 274° |
| 2026-04-30 10:54 | 11.97937 | 90.04506 | 36642 ft | 445 kts | 275° |
| 2026-04-30 10:54 | 11.98225 | 90.01402 | 36850 ft | 444 kts | 275° |
| 2026-04-30 10:54 | 11.98418 | 89.99309 | 36981 ft | 443 kts | 275° |
| 2026-04-30 10:55 | 11.98805 | 89.95121 | 37212 ft | 442 kts | 275° |
| 2026-04-30 10:55 | 11.98994 | 89.93079 | 37325 ft | 442 kts | 275° |
| 2026-04-30 10:55 | 11.99380 | 89.88896 | 37543 ft | 441 kts | 275° |
| 2026-04-30 10:55 | 11.99664 | 89.85820 | 37704 ft | 440 kts | 275° |
| 2026-04-30 10:56 | 11.99953 | 89.82694 | 37851 ft | 439 kts | 275° |
| 2026-04-30 10:56 | 12.00238 | 89.79607 | 37852 ft | 439 kts | 275° |
| 2026-04-30 10:56 | 12.00805 | 89.73447 | 37857 ft | 437 kts | 275° |
| 2026-04-30 10:57 | 12.01373 | 89.67239 | 37857 ft | 437 kts | 275° |
| 2026-04-30 10:57 | 12.01938 | 89.61063 | 37859 ft | 437 kts | 275° |
| 2026-04-30 10:58 | 12.02502 | 89.54872 | 37858 ft | 437 kts | 275° |
| 2026-04-30 10:58 | 12.03063 | 89.48689 | 37857 ft | 437 kts | 275° |
| 2026-04-30 10:59 | 12.03625 | 89.42498 | 37854 ft | 438 kts | 275° |
| 2026-04-30 10:59 | 12.04186 | 89.36301 | 37845 ft | 437 kts | 275° |
| 2026-04-30 11:00 | 12.04746 | 89.30101 | 37846 ft | 438 kts | 275° |
| 2026-04-30 11:00 | 12.05210 | 89.24944 | 37843 ft | 437 kts | 275° |
| 2026-04-30 11:01 | 12.05766 | 89.18748 | 37837 ft | 437 kts | 275° |
| 2026-04-30 11:01 | 12.06410 | 89.11558 | 37839 ft | 437 kts | 275° |
| 2026-04-30 11:02 | 12.06963 | 89.05369 | 37839 ft | 437 kts | 275° |
| 2026-04-30 11:02 | 12.07513 | 88.99185 | 37836 ft | 437 kts | 275° |
| 2026-04-30 11:03 | 12.08066 | 88.92962 | 37836 ft | 436 kts | 275° |
| 2026-04-30 11:04 | 12.08883 | 88.83714 | 37836 ft | 436 kts | 275° |
| 2026-04-30 11:04 | 12.09428 | 88.77528 | 37836 ft | 436 kts | 275° |
| 2026-04-30 11:05 | 12.09879 | 88.72382 | 37836 ft | 436 kts | 275° |
| 2026-04-30 11:05 | 12.10587 | 88.65198 | 37837 ft | 435 kts | 276° |
| 2026-04-30 11:06 | 12.11212 | 88.60066 | 37836 ft | 435 kts | 277° |
| 2026-04-30 11:06 | 12.11954 | 88.53930 | 37836 ft | 436 kts | 276° |
| 2026-04-30 11:07 | 12.12806 | 88.46758 | 37836 ft | 435 kts | 276° |
| 2026-04-30 11:07 | 12.13413 | 88.41615 | 37836 ft | 434 kts | 276° |
| 2026-04-30 11:08 | 12.14252 | 88.34462 | 37838 ft | 435 kts | 276° |
| 2026-04-30 11:08 | 12.14973 | 88.28286 | 37838 ft | 435 kts | 276° |
| 2026-04-30 11:09 | 12.15567 | 88.23206 | 37842 ft | 434 kts | 276° |
| 2026-04-30 11:09 | 12.16399 | 88.16045 | 37848 ft | 432 kts | 276° |
| 2026-04-30 11:10 | 12.17109 | 88.09949 | 37851 ft | 433 kts | 276° |
| 2026-04-30 11:10 | 12.17703 | 88.04843 | 37853 ft | 433 kts | 276° |
| 2026-04-30 11:11 | 12.18414 | 87.98707 | 37850 ft | 433 kts | 276° |
| 2026-04-30 11:11 | 12.19237 | 87.91578 | 37839 ft | 433 kts | 276° |
| 2026-04-30 11:12 | 12.19828 | 87.86446 | 37836 ft | 432 kts | 276° |
| 2026-04-30 11:12 | 12.20648 | 87.79321 | 37835 ft | 433 kts | 276° |
| 2026-04-30 11:13 | 12.21234 | 87.74223 | 37836 ft | 433 kts | 276° |
| 2026-04-30 11:13 | 12.21940 | 87.68082 | 37835 ft | 434 kts | 276° |
| 2026-04-30 11:14 | 12.22640 | 87.61963 | 37834 ft | 433 kts | 276° |
| 2026-04-30 11:14 | 12.23341 | 87.55813 | 37836 ft | 432 kts | 276° |
| 2026-04-30 11:15 | 12.24038 | 87.49704 | 37836 ft | 433 kts | 276° |
| 2026-04-30 11:15 | 12.24731 | 87.43610 | 37834 ft | 433 kts | 276° |
| 2026-04-30 11:16 | 12.25423 | 87.37507 | 37834 ft | 434 kts | 276° |
| 2026-04-30 11:16 | 12.26237 | 87.30335 | 37832 ft | 434 kts | 276° |
| 2026-04-30 11:17 | 12.26798 | 87.25364 | 37831 ft | 433 kts | 276° |
| 2026-04-30 11:17 | 12.27609 | 87.18190 | 37829 ft | 435 kts | 276° |
| 2026-04-30 11:18 | 12.28185 | 87.13081 | 37829 ft | 434 kts | 276° |
| 2026-04-30 11:18 | 12.29334 | 87.02845 | 37830 ft | 434 kts | 276° |
| 2026-04-30 11:19 | 12.29906 | 86.97736 | 37827 ft | 434 kts | 276° |
| 2026-04-30 11:19 | 12.30590 | 86.91625 | 37827 ft | 434 kts | 276° |
| 2026-04-30 11:20 | 12.31384 | 86.84492 | 37820 ft | 434 kts | 276° |
| 2026-04-30 11:20 | 12.31951 | 86.79387 | 37815 ft | 434 kts | 276° |
| 2026-04-30 11:21 | 12.32745 | 86.72254 | 37811 ft | 434 kts | 276° |
| 2026-04-30 11:21 | 12.33314 | 86.67127 | 37811 ft | 434 kts | 276° |
| 2026-04-30 11:22 | 12.34109 | 86.59945 | 37814 ft | 435 kts | 276° |
| 2026-04-30 11:22 | 12.34787 | 86.53799 | 37815 ft | 434 kts | 276° |
| 2026-04-30 11:23 | 12.35462 | 86.47679 | 37813 ft | 434 kts | 276° |
| 2026-04-30 11:24 | 12.36360 | 86.39510 | 37814 ft | 434 kts | 276° |
| 2026-04-30 11:24 | 12.37146 | 86.32345 | 37825 ft | 434 kts | 276° |
| 2026-04-30 11:25 | 12.38152 | 86.23132 | 37824 ft | 433 kts | 276° |
| 2026-04-30 11:26 | 12.39374 | 86.11919 | 37825 ft | 435 kts | 277° |
| 2026-04-30 11:26 | 12.40043 | 86.05765 | 37826 ft | 434 kts | 276° |
| 2026-04-30 11:27 | 12.40703 | 85.99670 | 37826 ft | 435 kts | 276° |
| 2026-04-30 11:27 | 12.41370 | 85.93516 | 37823 ft | 435 kts | 277° |
| 2026-04-30 11:28 | 12.42135 | 85.86410 | 37821 ft | 421 kts | 277° |
| 2026-04-30 11:28 | 12.42346 | 85.84451 | 37823 ft | 419 kts | 277° |
| 2026-04-30 11:29 | 12.43086 | 85.77576 | 37821 ft | 416 kts | 277° |
| 2026-04-30 11:29 | 12.43927 | 85.69732 | 37820 ft | 416 kts | 277° |
| 2026-04-30 11:30 | 12.44869 | 85.60931 | 37819 ft | 418 kts | 277° |
| 2026-04-30 11:31 | 12.45496 | 85.55057 | 37819 ft | 417 kts | 277° |
| 2026-04-30 11:31 | 12.46124 | 85.49165 | 37815 ft | 417 kts | 277° |
| 2026-04-30 11:32 | 12.46749 | 85.43274 | 37810 ft | 417 kts | 277° |
| 2026-04-30 11:32 | 12.47375 | 85.37369 | 37813 ft | 417 kts | 277° |
| 2026-04-30 11:33 | 12.48412 | 85.27573 | 37811 ft | 418 kts | 277° |
| 2026-04-30 11:33 | 12.49035 | 85.21661 | 37813 ft | 418 kts | 277° |
| 2026-04-30 11:34 | 12.49551 | 85.16747 | 37813 ft | 418 kts | 277° |
| 2026-04-30 11:34 | 12.50277 | 85.09847 | 37812 ft | 417 kts | 277° |
| 2026-04-30 11:35 | 12.50892 | 85.03969 | 37814 ft | 418 kts | 277° |
| 2026-04-30 11:35 | 12.51406 | 84.99062 | 37811 ft | 418 kts | 277° |
| 2026-04-30 11:36 | 12.52126 | 84.92165 | 37805 ft | 418 kts | 277° |
| 2026-04-30 11:36 | 12.52741 | 84.86242 | 37804 ft | 419 kts | 277° |
| 2026-04-30 11:37 | 12.53355 | 84.80338 | 37801 ft | 419 kts | 277° |
| 2026-04-30 11:37 | 12.53866 | 84.75408 | 37801 ft | 419 kts | 277° |
| 2026-04-30 11:38 | 12.54480 | 84.69470 | 37800 ft | 419 kts | 277° |
| 2026-04-30 11:38 | 12.55191 | 84.62589 | 37798 ft | 419 kts | 277° |
| 2026-04-30 11:39 | 12.55700 | 84.57667 | 37800 ft | 418 kts | 277° |
| 2026-04-30 11:39 | 12.56408 | 84.50782 | 37800 ft | 418 kts | 277° |
| 2026-04-30 11:40 | 12.56913 | 84.45857 | 37804 ft | 418 kts | 277° |
| 2026-04-30 11:40 | 12.57520 | 84.39927 | 37811 ft | 418 kts | 277° |
| 2026-04-30 11:41 | 12.58121 | 84.34026 | 37816 ft | 418 kts | 277° |
| 2026-04-30 11:41 | 12.58721 | 84.28146 | 37811 ft | 419 kts | 277° |
| 2026-04-30 11:42 | 12.59325 | 84.22213 | 37807 ft | 420 kts | 277° |
| 2026-04-30 11:42 | 12.59927 | 84.16281 | 37807 ft | 419 kts | 277° |
| 2026-04-30 11:43 | 12.60527 | 84.10347 | 37802 ft | 420 kts | 277° |
| 2026-04-30 11:43 | 12.61123 | 84.04446 | 37800 ft | 419 kts | 277° |
| 2026-04-30 11:44 | 12.61722 | 83.98498 | 37803 ft | 419 kts | 277° |
| 2026-04-30 11:44 | 12.62314 | 83.92609 | 37801 ft | 418 kts | 277° |
| 2026-04-30 11:45 | 12.63004 | 83.85725 | 37796 ft | 419 kts | 277° |
| 2026-04-30 11:45 | 12.63500 | 83.80783 | 37792 ft | 419 kts | 277° |
| 2026-04-30 11:46 | 12.64191 | 83.73850 | 37793 ft | 420 kts | 277° |
| 2026-04-30 11:46 | 12.64681 | 83.68919 | 37791 ft | 420 kts | 277° |
| 2026-04-30 11:47 | 12.65268 | 83.62987 | 37790 ft | 420 kts | 277° |
| 2026-04-30 11:47 | 12.65854 | 83.57076 | 37790 ft | 416 kts | 278° |
| 2026-04-30 11:48 | 12.66440 | 83.53265 | 37758 ft | 400 kts | 291° |
| 2026-04-30 11:48 | 12.67237 | 83.51577 | 37779 ft | 397 kts | 302° |
| 2026-04-30 11:48 | 12.69754 | 83.48795 | 37787 ft | 400 kts | 322° |
| 2026-04-30 11:48 | 12.72173 | 83.47437 | 37784 ft | 405 kts | 337° |
| 2026-04-30 11:49 | 12.76858 | 83.46812 | 37782 ft | 418 kts | 3° |
| 2026-04-30 11:49 | 12.79732 | 83.47585 | 37782 ft | 428 kts | 20° |
| 2026-04-30 11:49 | 12.82282 | 83.49213 | 37779 ft | 439 kts | 37° |
| 2026-04-30 11:50 | 12.84264 | 83.51582 | 37780 ft | 450 kts | 56° |
| 2026-04-30 11:50 | 12.85669 | 83.55637 | 37783 ft | 462 kts | 81° |
| 2026-04-30 11:50 | 12.85604 | 83.58938 | 37801 ft | 467 kts | 95° |
| 2026-04-30 11:50 | 12.85330 | 83.61140 | 37796 ft | 467 kts | 96° |
| 2026-04-30 11:51 | 12.84317 | 83.68801 | 37790 ft | 467 kts | 96° |
| 2026-04-30 11:51 | 12.83645 | 83.74299 | 37789 ft | 467 kts | 95° |
| 2026-04-30 11:52 | 12.82748 | 83.81966 | 37792 ft | 467 kts | 95° |
| 2026-04-30 11:52 | 12.81978 | 83.88583 | 37793 ft | 466 kts | 95° |
| 2026-04-30 11:53 | 12.81340 | 83.94057 | 37794 ft | 465 kts | 95° |
| 2026-04-30 11:53 | 12.80574 | 84.00633 | 37795 ft | 466 kts | 95° |
| 2026-04-30 11:54 | 12.79804 | 84.07199 | 37796 ft | 467 kts | 96° |
| 2026-04-30 11:54 | 12.78498 | 84.11417 | 37780 ft | 469 kts | 122° |
| 2026-04-30 11:54 | 12.76426 | 84.13934 | 37796 ft | 466 kts | 143° |
| 2026-04-30 11:55 | 12.74628 | 84.15174 | 37803 ft | 461 kts | 156° |
| 2026-04-30 11:55 | 12.71652 | 84.16189 | 37805 ft | 451 kts | 176° |
| 2026-04-30 11:55 | 12.68548 | 84.16193 | 37800 ft | 439 kts | 195° |
| 2026-04-30 11:55 | 12.64798 | 84.14753 | 37808 ft | 425 kts | 218° |
| 2026-04-30 11:56 | 12.63278 | 84.13554 | 37810 ft | 418 kts | 229° |
| 2026-04-30 11:56 | 12.61486 | 84.11246 | 37805 ft | 409 kts | 245° |
| 2026-04-30 11:56 | 12.60439 | 84.08598 | 37804 ft | 402 kts | 260° |
| 2026-04-30 11:56 | 12.60229 | 84.04829 | 37803 ft | 397 kts | 278° |
| 2026-04-30 11:57 | 12.60790 | 84.00159 | 37807 ft | 398 kts | 278° |
| 2026-04-30 11:57 | 12.61456 | 83.94568 | 37801 ft | 398 kts | 278° |
| 2026-04-30 11:58 | 12.62218 | 83.88016 | 37796 ft | 399 kts | 278° |
| 2026-04-30 11:58 | 12.62862 | 83.82394 | 37793 ft | 399 kts | 278° |
| 2026-04-30 11:59 | 12.63509 | 83.76742 | 37794 ft | 399 kts | 278° |
| 2026-04-30 11:59 | 12.64151 | 83.71105 | 37792 ft | 399 kts | 278° |
| 2026-04-30 12:00 | 12.64686 | 83.66408 | 37792 ft | 399 kts | 278° |
| 2026-04-30 12:00 | 12.65323 | 83.60807 | 37794 ft | 397 kts | 278° |
| 2026-04-30 12:01 | 12.65965 | 83.55193 | 37787 ft | 398 kts | 280° |
| 2026-04-30 12:01 | 12.66726 | 83.52480 | 37768 ft | 396 kts | 296° |
| 2026-04-30 12:01 | 12.68376 | 83.49134 | 37764 ft | 402 kts | 289° |
| 2026-04-30 12:02 | 12.68748 | 83.47231 | 37771 ft | 406 kts | 276° |
| 2026-04-30 12:02 | 12.68727 | 83.44338 | 37788 ft | 413 kts | 268° |
| 2026-04-30 12:02 | 12.67995 | 83.38400 | 37783 ft | 423 kts | 266° |
| 2026-04-30 12:03 | 12.66962 | 83.28445 | 37792 ft | 423 kts | 267° |
| 2026-04-30 12:04 | 12.66423 | 83.22431 | 37794 ft | 423 kts | 268° |
| 2026-04-30 12:04 | 12.65993 | 83.17429 | 37796 ft | 425 kts | 268° |
| 2026-04-30 12:05 | 12.65478 | 83.11401 | 37794 ft | 424 kts | 268° |
| 2026-04-30 12:05 | 12.64964 | 83.05368 | 37795 ft | 424 kts | 268° |
| 2026-04-30 12:06 | 12.64455 | 82.99365 | 37792 ft | 425 kts | 268° |
| 2026-04-30 12:06 | 12.63939 | 82.93325 | 37793 ft | 425 kts | 268° |
| 2026-04-30 12:07 | 12.63424 | 82.87305 | 37790 ft | 426 kts | 268° |
| 2026-04-30 12:07 | 12.62903 | 82.81250 | 37792 ft | 426 kts | 268° |
| 2026-04-30 12:08 | 12.62300 | 82.74210 | 37783 ft | 426 kts | 268° |
| 2026-04-30 12:08 | 12.61780 | 82.68161 | 37778 ft | 427 kts | 268° |
| 2026-04-30 12:09 | 12.61256 | 82.62099 | 37775 ft | 428 kts | 268° |
| 2026-04-30 12:09 | 12.60817 | 82.57034 | 37767 ft | 428 kts | 268° |
| 2026-04-30 12:10 | 12.60290 | 82.50962 | 37770 ft | 430 kts | 268° |
| 2026-04-30 12:10 | 12.59672 | 82.43861 | 37770 ft | 430 kts | 268° |
| 2026-04-30 12:11 | 12.59139 | 82.37759 | 37771 ft | 430 kts | 268° |
| 2026-04-30 12:11 | 12.58695 | 82.32694 | 37773 ft | 430 kts | 268° |
| 2026-04-30 12:12 | 12.58160 | 82.26600 | 37773 ft | 431 kts | 268° |
| 2026-04-30 12:12 | 12.57625 | 82.20539 | 37774 ft | 431 kts | 268° |
| 2026-04-30 12:13 | 12.56997 | 82.13406 | 37772 ft | 432 kts | 268° |
| 2026-04-30 12:13 | 12.56572 | 82.08308 | 37770 ft | 432 kts | 269° |
| 2026-04-30 12:14 | 12.56465 | 82.02184 | 37770 ft | 430 kts | 275° |
| 2026-04-30 12:14 | 12.56978 | 81.96146 | 37771 ft | 428 kts | 281° |
| 2026-04-30 12:15 | 12.58080 | 81.90172 | 37771 ft | 428 kts | 284° |
| 2026-04-30 12:15 | 12.59343 | 81.84199 | 37773 ft | 427 kts | 284° |
| 2026-04-30 12:16 | 12.60591 | 81.78293 | 37769 ft | 427 kts | 284° |
| 2026-04-30 12:16 | 12.61847 | 81.72343 | 37765 ft | 428 kts | 284° |
| 2026-04-30 12:17 | 12.63724 | 81.63418 | 37766 ft | 428 kts | 284° |
| 2026-04-30 12:17 | 12.65180 | 81.56474 | 37762 ft | 429 kts | 284° |
| 2026-04-30 12:18 | 12.66225 | 81.51495 | 37763 ft | 427 kts | 285° |
| 2026-04-30 12:18 | 12.66836 | 81.48572 | 37507 ft | 423 kts | 284° |
| 2026-04-30 12:18 | 12.67459 | 81.45611 | 36627 ft | 427 kts | 284° |
| 2026-04-30 12:19 | 12.68087 | 81.42635 | 35434 ft | 436 kts | 284° |
| 2026-04-30 12:19 | 12.68726 | 81.39604 | 34363 ft | 441 kts | 283° |
| 2026-04-30 12:19 | 12.69584 | 81.35509 | 33107 ft | 443 kts | 283° |
| 2026-04-30 12:19 | 12.69979 | 81.33623 | 32534 ft | 444 kts | 282° |
| 2026-04-30 12:20 | 12.70626 | 81.30523 | 31638 ft | 445 kts | 282° |
| 2026-04-30 12:20 | 12.71271 | 81.27429 | 30693 ft | 448 kts | 282° |
| 2026-04-30 12:20 | 12.71918 | 81.24325 | 29728 ft | 451 kts | 281° |
| 2026-04-30 12:20 | 12.72572 | 81.21193 | 28973 ft | 448 kts | 281° |
| 2026-04-30 12:21 | 12.73215 | 81.18108 | 28412 ft | 441 kts | 281° |
| 2026-04-30 12:21 | 12.74052 | 81.14063 | 27624 ft | 435 kts | 281° |
| 2026-04-30 12:21 | 12.74670 | 81.11077 | 27005 ft | 431 kts | 281° |
| 2026-04-30 12:21 | 12.75290 | 81.08082 | 26388 ft | 428 kts | 281° |
| 2026-04-30 12:22 | 12.75698 | 81.06110 | 25991 ft | 425 kts | 281° |
| 2026-04-30 12:22 | 12.76304 | 81.03187 | 25397 ft | 421 kts | 281° |
| 2026-04-30 12:22 | 12.76911 | 81.00256 | 24776 ft | 418 kts | 281° |
| 2026-04-30 12:22 | 12.77509 | 80.97365 | 24157 ft | 415 kts | 281° |
| 2026-04-30 12:23 | 12.78100 | 80.94514 | 23555 ft | 412 kts | 281° |
| 2026-04-30 12:23 | 12.78688 | 80.91671 | 23109 ft | 404 kts | 281° |
| 2026-04-30 12:23 | 12.79263 | 80.88894 | 22705 ft | 397 kts | 282° |
| 2026-04-30 12:23 | 12.79830 | 80.86153 | 22308 ft | 389 kts | 282° |
| 2026-04-30 12:24 | 12.80488 | 80.83466 | 21916 ft | 383 kts | 287° |
| 2026-04-30 12:24 | 12.81423 | 80.80962 | 21736 ft | 370 kts | 293° |
| 2026-04-30 12:24 | 12.82519 | 80.78670 | 21726 ft | 354 kts | 295° |
| 2026-04-30 12:24 | 12.83621 | 80.76461 | 21523 ft | 344 kts | 296° |
| 2026-04-30 12:25 | 12.84715 | 80.74280 | 21179 ft | 339 kts | 296° |
| 2026-04-30 12:25 | 12.85780 | 80.72150 | 20839 ft | 334 kts | 296° |
| 2026-04-30 12:25 | 12.87169 | 80.69370 | 20320 ft | 330 kts | 296° |
| 2026-04-30 12:25 | 12.88213 | 80.67278 | 19877 ft | 329 kts | 296° |
| 2026-04-30 12:26 | 12.88912 | 80.65878 | 19580 ft | 328 kts | 296° |
| 2026-04-30 12:26 | 12.90276 | 80.63139 | 19001 ft | 326 kts | 296° |
| 2026-04-30 12:26 | 12.90973 | 80.61737 | 18708 ft | 326 kts | 297° |
| 2026-04-30 12:26 | 12.91989 | 80.59694 | 18278 ft | 325 kts | 297° |
| 2026-04-30 12:27 | 12.93018 | 80.57625 | 17843 ft | 324 kts | 297° |
| 2026-04-30 12:27 | 12.94037 | 80.55576 | 17398 ft | 323 kts | 297° |
| 2026-04-30 12:27 | 12.95053 | 80.53533 | 16961 ft | 322 kts | 297° |
| 2026-04-30 12:27 | 12.96072 | 80.51485 | 16529 ft | 321 kts | 297° |
| 2026-04-30 12:28 | 12.97072 | 80.49474 | 16130 ft | 319 kts | 297° |
| 2026-04-30 12:28 | 12.98078 | 80.47450 | 15719 ft | 318 kts | 297° |
| 2026-04-30 12:28 | 12.99076 | 80.45441 | 15302 ft | 316 kts | 297° |
| 2026-04-30 12:28 | 13.00073 | 80.43434 | 14897 ft | 314 kts | 298° |
| 2026-04-30 12:29 | 13.01388 | 80.40787 | 14367 ft | 312 kts | 297° |
| 2026-04-30 12:29 | 13.02040 | 80.39475 | 14093 ft | 311 kts | 297° |
| 2026-04-30 12:29 | 13.03019 | 80.37502 | 13698 ft | 309 kts | 298° |
| 2026-04-30 12:29 | 13.03993 | 80.35537 | 13312 ft | 307 kts | 298° |
| 2026-04-30 12:30 | 13.04948 | 80.33609 | 12915 ft | 306 kts | 298° |
| 2026-04-30 12:30 | 13.05873 | 80.31742 | 12510 ft | 305 kts | 298° |
| 2026-04-30 12:30 | 13.06828 | 80.29816 | 12108 ft | 304 kts | 298° |
| 2026-04-30 12:30 | 13.07777 | 80.27902 | 11720 ft | 302 kts | 298° |
| 2026-04-30 12:31 | 13.08732 | 80.25976 | 11307 ft | 301 kts | 298° |
| 2026-04-30 12:31 | 13.09678 | 80.24065 | 10923 ft | 299 kts | 298° |
| 2026-04-30 12:31 | 13.10563 | 80.22154 | 10527 ft | 299 kts | 290° |
| 2026-04-30 12:31 | 13.10604 | 80.19342 | 9961 ft | 301 kts | 254° |
| 2026-04-30 12:32 | 13.10125 | 80.17993 | 9730 ft | 300 kts | 250° |
| 2026-04-30 12:32 | 13.09374 | 80.16022 | 9342 ft | 299 kts | 250° |
| 2026-04-30 12:32 | 13.08621 | 80.14014 | 8946 ft | 298 kts | 250° |
| 2026-04-30 12:32 | 13.07896 | 80.12041 | 8596 ft | 296 kts | 250° |
| 2026-04-30 12:33 | 13.07184 | 80.10075 | 8220 ft | 294 kts | 251° |
| 2026-04-30 12:33 | 13.06475 | 80.08102 | 7965 ft | 287 kts | 250° |
| 2026-04-30 12:33 | 13.05805 | 80.06234 | 7796 ft | 278 kts | 251° |
| 2026-04-30 12:33 | 13.05135 | 80.04397 | 7629 ft | 269 kts | 250° |
| 2026-04-30 12:34 | 13.04467 | 80.02647 | 7472 ft | 260 kts | 249° |
| 2026-04-30 12:34 | 13.03818 | 80.00962 | 7292 ft | 251 kts | 249° |
| 2026-04-30 12:34 | 13.03178 | 79.99306 | 6871 ft | 252 kts | 249° |
| 2026-04-30 12:34 | 13.02517 | 79.97612 | 6192 ft | 263 kts | 249° |
| 2026-04-30 12:35 | 13.01839 | 79.95850 | 5458 ft | 273 kts | 249° |
| 2026-04-30 12:35 | 13.01161 | 79.94014 | 4916 ft | 274 kts | 249° |
| 2026-04-30 12:35 | 13.00515 | 79.92205 | 4442 ft | 272 kts | 248° |
| 2026-04-30 12:35 | 12.99637 | 79.90521 | 3931 ft | 268 kts | 227° |
| 2026-04-30 12:36 | 12.98121 | 79.89436 | 3411 ft | 263 kts | 198° |
| 2026-04-30 12:36 | 12.96343 | 79.89240 | 2932 ft | 258 kts | 171° |
| 2026-04-30 12:36 | 12.94626 | 79.89726 | 2524 ft | 254 kts | 161° |
| 2026-04-30 12:36 | 12.93007 | 79.90331 | 2289 ft | 242 kts | 158° |
| 2026-04-30 12:37 | 12.91675 | 79.91275 | 2192 ft | 225 kts | 128° |
| 2026-04-30 12:37 | 12.91115 | 79.92705 | 2197 ft | 221 kts | 100° |
| 2026-04-30 12:37 | 12.91047 | 79.94280 | 2206 ft | 222 kts | 92° |
| 2026-04-30 12:37 | 12.91240 | 79.95863 | 2214 ft | 225 kts | 81° |
| 2026-04-30 12:38 | 12.91681 | 79.97369 | 2194 ft | 215 kts | 75° |
| 2026-04-30 12:38 | 12.92216 | 79.98798 | 2204 ft | 214 kts | 73° |
| 2026-04-30 12:38 | 12.92764 | 80.00209 | 2211 ft | 212 kts | 73° |
| 2026-04-30 12:38 | 12.93299 | 80.01608 | 1974 ft | 210 kts | 73° |
| 2026-04-30 12:39 | 12.93995 | 80.03459 | 1721 ft | 209 kts | 75° |
| 2026-04-30 12:39 | 12.94340 | 80.04380 | 1780 ft | 198 kts | 75° |
| 2026-04-30 12:39 | 12.94805 | 80.05614 | 1725 ft | 176 kts | 76° |
| 2026-04-30 12:39 | 12.95218 | 80.06709 | 1659 ft | 156 kts | 77° |
| 2026-04-30 12:40 | 12.95727 | 80.08088 | 1462 ft | 154 kts | 77° |
| 2026-04-30 12:40 | 12.95978 | 80.08766 | 1326 ft | 153 kts | 76° |
| 2026-04-30 12:40 | 12.96354 | 80.09776 | 1121 ft | 152 kts | 75° |
| 2026-04-30 12:40 | 12.96735 | 80.10793 | 927 ft | 150 kts | 76° |
| 2026-04-30 12:41 | 12.97096 | 80.11748 | 729 ft | 141 kts | 76° |
| 2026-04-30 12:41 | 12.97445 | 80.12682 | 564 ft | 139 kts | 76° |
| 2026-04-30 12:41 | 12.97780 | 80.13610 | 412 ft | 139 kts | 77° |
| 2026-04-30 12:41 | 12.98132 | 80.14535 | 265 ft | 139 kts | 74° |
| 2026-04-30 12:42 | 12.98478 | 80.15454 | 89 ft | 138 kts | 74° |
| 2026-04-30 12:42 | 12.98796 | 80.16332 | 45 ft | 116 kts | 69° |
| 2026-04-30 12:42 | 12.99043 | 80.16984 | 44 ft | 76 kts | 70° |
| 2026-04-30 12:42 | 12.99195 | 80.17371 | 43 ft | 20 kts | 73° |
| 2026-04-30 12:43 | 12.99221 | 80.17464 | 43 ft | 19 kts | 75° |
| 2026-04-30 12:43 | 12.99269 | 80.17591 | 43 ft | 18 kts | 68° |
| 2026-04-30 12:43 | 12.99236 | 80.17676 | 43 ft | 13 kts | 157° |
| 2026-04-30 12:43 | 12.99152 | 80.17697 | 45 ft | 10 kts | 199° |
| 2026-04-30 12:44 | 12.99111 | 80.17638 | 46 ft | 10 kts | 249° |
| 2026-04-30 12:44 | 12.99083 | 80.17567 | 46 ft | 10 kts | 248° |
| 2026-04-30 12:44 | 12.99056 | 80.17496 | 46 ft | 11 kts | 249° |
| 2026-04-30 12:44 | 12.99028 | 80.17422 | 46 ft | 10 kts | 249° |
| 2026-04-30 12:45 | 12.99001 | 80.17351 | 47 ft | 10 kts | 248° |
| 2026-04-30 12:45 | 12.98973 | 80.17281 | 47 ft | 10 kts | 246° |
| 2026-04-30 12:45 | 12.98937 | 80.17214 | 47 ft | 10 kts | 243° |
| 2026-04-30 12:45 | 12.98909 | 80.17141 | 47 ft | 11 kts | 249° |
| 2026-04-30 12:46 | 12.98862 | 80.17021 | 46 ft | 24 kts | 250° |
| 2026-04-30 12:46 | 12.98776 | 80.16793 | 47 ft | 21 kts | 247° |
| 2026-04-30 12:46 | 12.98710 | 80.16737 | 47 ft | 12 kts | 170° |
| 2026-04-30 12:46 | 12.98662 | 80.16754 | 50 ft | 9 kts | 158° |
| 2026-04-30 12:47 | 12.98617 | 80.16766 | 53 ft | 5 kts | 192° |
| 2026-04-30 12:47 | 12.98588 | 80.16740 | 53 ft | 4 kts | 240° |
| 2026-04-30 12:47 | 12.98566 | 80.16721 | 53 ft | 8 kts | 196° |
| 2026-04-30 12:47 | 12.98521 | 80.16737 | 54 ft | 4 kts | 158° |
| 2026-04-30 12:48 | 12.98509 | 80.16743 | 55 ft | 0 kts | 158° |